sensor_id;sensor_type;location;lat;lon;timestamp;pressure;altitude;pressure_sealevel;temperature;humidity
24422;BME280;12600;53.326;-6.298;2024-01-30T02:24:32;102130.88;;;3.62;96.92
24422;BME280;12600;53.326;-6.298;2024-01-30T02:27:22;102138.97;;;3.62;96.63
24422;BME280;12600;53.326;-6.298;2024-01-30T02:30:12;102140.47;;;3.58;96.81
24422;BME280;12600;53.326;-6.298;2024-01-30T02:33:02;102142.34;;;3.57;96.66
24422;BME280;12600;53.326;-6.298;2024-01-30T02:35:52;102143.16;;;3.58;96.44
24422;BME280;12600;53.326;-6.298;2024-01-30T02:38:41;102145.88;;;3.58;96.89
24422;BME280;12600;53.326;-6.298;2024-01-30T02:41:32;102138.81;;;3.57;96.92
24422;BME280;12600;53.326;-6.298;2024-01-30T02:44:21;102118.41;;;3.43;97.02
24422;BME280;12600;53.326;-6.298;2024-01-30T02:47:11;102148.56;;;3.58;96.76
24422;BME280;12600;53.326;-6.298;2024-01-30T02:50:00;102152.91;;;3.59;96.54
24422;BME280;12600;53.326;-6.298;2024-01-30T02:52:50;102153.38;;;3.56;96.79
24422;BME280;12600;53.326;-6.298;2024-01-30T02:55:39;102156.66;;;3.58;97.24
24422;BME280;12600;53.326;-6.298;2024-01-30T02:58:30;102153.81;;;3.53;96.38
24422;BME280;12600;53.326;-6.298;2024-01-30T03:01:20;102158.38;;;3.52;97.30
24422;BME280;12600;53.326;-6.298;2024-01-30T03:04:09;102156.06;;;3.56;96.91
24422;BME280;12600;53.326;-6.298;2024-01-30T03:06:59;102163.38;;;3.55;96.90
24422;BME280;12600;53.326;-6.298;2024-01-30T03:09:48;102163.59;;;3.54;96.74
24422;BME280;12600;53.326;-6.298;2024-01-30T03:12:38;102160.91;;;3.54;96.46
24422;BME280;12600;53.326;-6.298;2024-01-30T03:15:28;102156.22;;;3.43;96.10
24422;BME280;12600;53.326;-6.298;2024-01-30T03:18:19;102169.88;;;3.48;96.42
24422;BME280;12600;53.326;-6.298;2024-01-30T03:21:08;102135.06;;;3.21;96.51
24422;BME280;12600;53.326;-6.298;2024-01-30T03:23:58;102180.16;;;3.39;96.22
24422;BME280;12600;53.326;-6.298;2024-01-30T03:26:47;102175.19;;;3.36;96.85
24422;BME280;12600;53.326;-6.298;2024-01-30T03:29:37;102185.94;;;3.43;96.70
24422;BME280;12600;53.326;-6.298;2024-01-30T03:32:28;102193.81;;;3.44;96.21
24422;BME280;12600;53.326;-6.298;2024-01-30T03:35:18;102195.25;;;3.47;96.23
24422;BME280;12600;53.326;-6.298;2024-01-30T03:38:08;102193.63;;;3.46;95.81
24422;BME280;12600;53.326;-6.298;2024-01-30T03:40:57;102200.03;;;3.45;96.44
24422;BME280;12600;53.326;-6.298;2024-01-30T03:43:47;102198.19;;;3.45;95.42
24422;BME280;12600;53.326;-6.298;2024-01-30T03:46:36;102198.38;;;3.44;95.40
24422;BME280;12600;53.326;-6.298;2024-01-30T03:49:27;102189.31;;;3.38;95.79
24422;BME280;12600;53.326;-6.298;2024-01-30T03:52:17;102197.63;;;3.36;96.22
24422;BME280;12600;53.326;-6.298;2024-01-30T03:55:07;102205.53;;;3.38;95.71
24422;BME280;12600;53.326;-6.298;2024-01-30T03:57:57;102204.72;;;3.38;95.42
24422;BME280;12600;53.326;-6.298;2024-01-30T04:00:47;102198.78;;;3.29;95.28
24422;BME280;12600;53.326;-6.298;2024-01-30T04:03:36;102207.69;;;3.29;95.61
24422;BME280;12600;53.326;-6.298;2024-01-30T04:06:27;102214.34;;;3.27;95.06
24422;BME280;12600;53.326;-6.298;2024-01-30T04:09:16;102221.84;;;3.25;95.73
24422;BME280;12600;53.326;-6.298;2024-01-30T04:12:07;102226.03;;;3.21;95.42
24422;BME280;12600;53.326;-6.298;2024-01-30T04:14:56;102224.31;;;3.26;95.70
24422;BME280;12600;53.326;-6.298;2024-01-30T04:17:46;102224.78;;;3.23;95.90
24422;BME280;12600;53.326;-6.298;2024-01-30T04:20:35;102230.56;;;3.27;95.16
24422;BME280;12600;53.326;-6.298;2024-01-30T04:23:26;102225.22;;;3.20;95.30
24422;BME280;12600;53.326;-6.298;2024-01-30T04:26:16;102237.50;;;3.16;95.48
24422;BME280;12600;53.326;-6.298;2024-01-30T04:29:05;102247.28;;;3.17;95.26
24422;BME280;12600;53.326;-6.298;2024-01-30T04:31:54;102248.91;;;3.18;94.99
24422;BME280;12600;53.326;-6.298;2024-01-30T04:34:44;102253.94;;;3.15;95.23
24422;BME280;12600;53.326;-6.298;2024-01-30T04:37:33;102256.91;;;3.06;95.65
24422;BME280;12600;53.326;-6.298;2024-01-30T04:40:24;102267.28;;;3.09;95.98
24422;BME280;12600;53.326;-6.298;2024-01-30T04:43:14;102276.41;;;3.08;95.07
24422;BME280;12600;53.326;-6.298;2024-01-30T04:46:04;102267.34;;;2.96;95.27
24422;BME280;12600;53.326;-6.298;2024-01-30T04:48:54;102276.13;;;2.92;95.10
24422;BME280;12600;53.326;-6.298;2024-01-30T04:51:43;102279.84;;;2.97;95.91
24422;BME280;12600;53.326;-6.298;2024-01-30T04:54:33;102274.44;;;2.97;96.06
24422;BME280;12600;53.326;-6.298;2024-01-30T04:57:24;102264.50;;;2.91;95.80
24422;BME280;12600;53.326;-6.298;2024-01-30T05:00:14;102274.22;;;2.99;95.47
24422;BME280;12600;53.326;-6.298;2024-01-30T05:03:04;102284.78;;;3.00;95.32
24422;BME280;12600;53.326;-6.298;2024-01-30T05:05:54;102286.06;;;2.98;95.03
24422;BME280;12600;53.326;-6.298;2024-01-30T05:08:43;102288.91;;;3.03;95.45
24422;BME280;12600;53.326;-6.298;2024-01-30T05:11:37;102288.31;;;3.01;94.60
24422;BME280;12600;53.326;-6.298;2024-01-30T05:14:28;102295.38;;;3.02;94.94
24422;BME280;12600;53.326;-6.298;2024-01-30T05:17:17;102299.06;;;3.07;94.88
24422;BME280;12600;53.326;-6.298;2024-01-30T05:20:08;102299.28;;;3.06;94.68
24422;BME280;12600;53.326;-6.298;2024-01-30T05:22:59;102303.88;;;3.05;94.60
24422;BME280;12600;53.326;-6.298;2024-01-30T05:25:48;102301.00;;;3.00;94.87
24422;BME280;12600;53.326;-6.298;2024-01-30T05:28:37;102318.81;;;3.08;95.00
24422;BME280;12600;53.326;-6.298;2024-01-30T05:31:28;102322.56;;;3.07;94.55
24422;BME280;12600;53.326;-6.298;2024-01-30T05:34:18;102328.56;;;3.09;94.62
24422;BME280;12600;53.326;-6.298;2024-01-30T05:37:07;102334.56;;;3.11;94.61
24422;BME280;12600;53.326;-6.298;2024-01-30T05:39:57;102327.50;;;3.10;94.49
24422;BME280;12600;53.326;-6.298;2024-01-30T05:42:47;102328.31;;;3.11;95.14
24422;BME280;12600;53.326;-6.298;2024-01-30T05:45:36;102330.81;;;3.12;94.66
24422;BME280;12600;53.326;-6.298;2024-01-30T05:48:27;102332.69;;;3.12;95.08
24422;BME280;12600;53.326;-6.298;2024-01-30T05:51:17;102337.88;;;3.13;95.16
24422;BME280;12600;53.326;-6.298;2024-01-30T05:54:06;102340.59;;;3.13;95.21
24422;BME280;12600;53.326;-6.298;2024-01-30T05:56:56;102337.47;;;3.09;96.08
24422;BME280;12600;53.326;-6.298;2024-01-30T05:59:45;102352.16;;;3.20;95.32
24422;BME280;12600;53.326;-6.298;2024-01-30T06:02:36;102350.06;;;3.22;95.48
24422;BME280;12600;53.326;-6.298;2024-01-30T06:05:27;102358.81;;;3.18;95.52
24422;BME280;12600;53.326;-6.298;2024-01-30T06:08:17;102354.84;;;3.20;95.62
24422;BME280;12600;53.326;-6.298;2024-01-30T06:11:10;102364.00;;;3.19;95.14
24422;BME280;12600;53.326;-6.298;2024-01-30T06:13:59;102366.94;;;3.18;95.86
24422;BME280;12600;53.326;-6.298;2024-01-30T06:16:48;102364.00;;;3.19;95.83
24422;BME280;12600;53.326;-6.298;2024-01-30T06:19:38;102365.00;;;3.25;95.61
24422;BME280;12600;53.326;-6.298;2024-01-30T06:22:29;102371.56;;;3.35;95.68
24422;BME280;12600;53.326;-6.298;2024-01-30T06:25:18;102376.16;;;3.35;95.13
24422;BME280;12600;53.326;-6.298;2024-01-30T06:28:08;102383.00;;;3.38;95.41
24422;BME280;12600;53.326;-6.298;2024-01-30T06:30:57;102385.09;;;3.35;95.76
24422;BME280;12600;53.326;-6.298;2024-01-30T06:33:47;102391.13;;;3.38;95.35
24422;BME280;12600;53.326;-6.298;2024-01-30T06:36:37;102398.78;;;3.41;95.50
24422;BME280;12600;53.326;-6.298;2024-01-30T06:39:28;102399.59;;;3.41;95.59
24422;BME280;12600;53.326;-6.298;2024-01-30T06:42:17;102403.34;;;3.40;95.52
24422;BME280;12600;53.326;-6.298;2024-01-30T06:45:08;102406.84;;;3.47;95.34
24422;BME280;12600;53.326;-6.298;2024-01-30T06:47:57;102402.50;;;3.46;95.91
24422;BME280;12600;53.326;-6.298;2024-01-30T06:50:47;102416.19;;;3.45;95.87
24422;BME280;12600;53.326;-6.298;2024-01-30T06:53:37;102414.16;;;3.40;95.90
24422;BME280;12600;53.326;-6.298;2024-01-30T06:56:28;102414.97;;;3.41;95.93
24422;BME280;12600;53.326;-6.298;2024-01-30T06:59:17;102422.22;;;3.47;95.98
24422;BME280;12600;53.326;-6.298;2024-01-30T07:02:07;102418.47;;;3.48;95.70
24422;BME280;12600;53.326;-6.298;2024-01-30T07:04:57;102418.06;;;3.44;95.73
24422;BME280;12600;53.326;-6.298;2024-01-30T07:07:47;102428.88;;;3.44;96.07
24422;BME280;12600;53.326;-6.298;2024-01-30T07:10:36;102445.75;;;3.40;96.17
24422;BME280;12600;53.326;-6.298;2024-01-30T07:13:28;102442.84;;;3.41;95.86
24422;BME280;12600;53.326;-6.298;2024-01-30T07:16:17;102448.00;;;3.43;96.06
24422;BME280;12600;53.326;-6.298;2024-01-30T07:19:07;102449.06;;;3.42;96.42
24422;BME280;12600;53.326;-6.298;2024-01-30T07:21:57;102451.75;;;3.42;96.00
24422;BME280;12600;53.326;-6.298;2024-01-30T07:24:47;102448.22;;;3.41;95.89
24422;BME280;12600;53.326;-6.298;2024-01-30T07:27:37;102453.25;;;3.38;96.56
24422;BME280;12600;53.326;-6.298;2024-01-30T07:30:29;102457.38;;;3.40;96.78
24422;BME280;12600;53.326;-6.298;2024-01-30T07:33:25;102454.69;;;3.40;96.08
24422;BME280;12600;53.326;-6.298;2024-01-30T07:36:14;102455.97;;;3.38;96.08
24422;BME280;12600;53.326;-6.298;2024-01-30T07:39:04;102460.69;;;3.42;96.04
24422;BME280;12600;53.326;-6.298;2024-01-30T07:41:53;102475.25;;;3.41;96.29
24422;BME280;12600;53.326;-6.298;2024-01-30T07:44:43;102484.78;;;3.44;96.34
24422;BME280;12600;53.326;-6.298;2024-01-30T07:47:33;102493.53;;;3.46;96.18
24422;BME280;12600;53.326;-6.298;2024-01-30T07:50:23;102502.22;;;3.54;96.22
24422;BME280;12600;53.326;-6.298;2024-01-30T07:53:12;102500.69;;;3.65;96.00
24422;BME280;12600;53.326;-6.298;2024-01-30T07:56:01;102501.47;;;3.72;96.53
24422;BME280;12600;53.326;-6.298;2024-01-30T07:58:51;102494.75;;;3.81;96.13
24422;BME280;12600;53.326;-6.298;2024-01-30T08:01:41;102504.91;;;3.86;95.98
24422;BME280;12600;53.326;-6.298;2024-01-30T08:04:32;102508.19;;;3.95;95.35
24422;BME280;12600;53.326;-6.298;2024-01-30T08:07:21;102497.75;;;3.98;95.27
24422;BME280;12600;53.326;-6.298;2024-01-30T08:10:12;102506.53;;;3.93;94.91
24422;BME280;12600;53.326;-6.298;2024-01-30T08:13:01;102517.72;;;3.97;94.30
24422;BME280;12600;53.326;-6.298;2024-01-30T08:15:51;102515.25;;;3.96;95.03
24422;BME280;12600;53.326;-6.298;2024-01-30T08:18:40;102507.41;;;3.87;94.09
24422;BME280;12600;53.326;-6.298;2024-01-30T08:21:31;102526.31;;;3.87;94.64
24422;BME280;12600;53.326;-6.298;2024-01-30T08:24:26;102538.56;;;3.90;94.32
24422;BME280;12600;53.326;-6.298;2024-01-30T08:27:16;102530.91;;;3.87;94.56
24422;BME280;12600;53.326;-6.298;2024-01-30T08:30:07;102550.66;;;3.87;94.33
24422;BME280;12600;53.326;-6.298;2024-01-30T08:32:56;102546.47;;;3.91;94.36
24422;BME280;12600;53.326;-6.298;2024-01-30T08:35:46;102541.72;;;3.87;94.53
24422;BME280;12600;53.326;-6.298;2024-01-30T08:38:37;102549.81;;;3.93;94.64
24422;BME280;12600;53.326;-6.298;2024-01-30T08:41:26;102550.22;;;3.90;95.08
24422;BME280;12600;53.326;-6.298;2024-01-30T08:44:16;102559.78;;;3.93;94.69
24422;BME280;12600;53.326;-6.298;2024-01-30T08:47:05;102555.63;;;3.90;94.23
24422;BME280;12600;53.326;-6.298;2024-01-30T08:49:55;102558.09;;;3.92;94.74
24422;BME280;12600;53.326;-6.298;2024-01-30T08:52:44;102560.16;;;3.97;95.20
24422;BME280;12600;53.326;-6.298;2024-01-30T08:55:37;102561.00;;;3.97;94.37
24422;BME280;12600;53.326;-6.298;2024-01-30T08:58:27;102562.50;;;3.93;94.67
24422;BME280;12600;53.326;-6.298;2024-01-30T09:01:16;102565.34;;;3.98;94.78
24422;BME280;12600;53.326;-6.298;2024-01-30T09:04:06;102566.59;;;4.02;95.42
24422;BME280;12600;53.326;-6.298;2024-01-30T09:06:55;102575.34;;;3.98;94.83
24422;BME280;12600;53.326;-6.298;2024-01-30T09:09:45;102575.09;;;4.06;95.71
24422;BME280;12600;53.326;-6.298;2024-01-30T09:12:36;102575.88;;;4.13;95.07
24422;BME280;12600;53.326;-6.298;2024-01-30T09:15:26;102578.94;;;4.16;95.64
24422;BME280;12600;53.326;-6.298;2024-01-30T09:18:15;102581.84;;;4.21;95.90
24422;BME280;12600;53.326;-6.298;2024-01-30T09:21:05;102593.25;;;4.24;96.55
24422;BME280;12600;53.326;-6.298;2024-01-30T09:24:01;102598.22;;;4.33;96.87
24422;BME280;12600;53.326;-6.298;2024-01-30T09:26:50;102597.72;;;4.43;96.22
24422;BME280;12600;53.326;-6.298;2024-01-30T09:29:41;102603.28;;;4.48;96.22
24422;BME280;12600;53.326;-6.298;2024-01-30T09:32:30;102601.97;;;4.57;96.12
24422;BME280;12600;53.326;-6.298;2024-01-30T09:35:20;102605.06;;;4.61;95.63
24422;BME280;12600;53.326;-6.298;2024-01-30T09:38:09;102608.97;;;4.65;95.82
24422;BME280;12600;53.326;-6.298;2024-01-30T09:41:03;102615.38;;;4.70;95.95
24422;BME280;12600;53.326;-6.298;2024-01-30T09:43:55;102613.72;;;4.69;95.85
24422;BME280;12600;53.326;-6.298;2024-01-30T09:46:48;102616.31;;;4.83;95.74
24422;BME280;12600;53.326;-6.298;2024-01-30T09:49:38;102623.53;;;4.89;96.12
24422;BME280;12600;53.326;-6.298;2024-01-30T09:52:28;102628.53;;;4.92;94.94
24422;BME280;12600;53.326;-6.298;2024-01-30T09:55:18;102632.44;;;4.96;95.60
24422;BME280;12600;53.326;-6.298;2024-01-30T09:58:07;102631.19;;;4.98;95.44
24422;BME280;12600;53.326;-6.298;2024-01-30T10:00:56;102634.25;;;5.02;95.56
24422;BME280;12600;53.326;-6.298;2024-01-30T10:03:50;102632.38;;;5.02;95.53
24422;BME280;12600;53.326;-6.298;2024-01-30T10:06:40;102639.84;;;5.07;95.87
24422;BME280;12600;53.326;-6.298;2024-01-30T10:09:32;102650.69;;;5.07;95.09
24422;BME280;12600;53.326;-6.298;2024-01-30T10:12:23;102645.81;;;5.16;95.66
24422;BME280;12600;53.326;-6.298;2024-01-30T10:15:13;102645.50;;;5.24;95.94
24422;BME280;12600;53.326;-6.298;2024-01-30T10:18:03;102644.81;;;5.28;96.05
24422;BME280;12600;53.326;-6.298;2024-01-30T10:20:56;102641.69;;;5.31;96.20
24422;BME280;12600;53.326;-6.298;2024-01-30T10:23:46;102643.09;;;5.34;96.06
24422;BME280;12600;53.326;-6.298;2024-01-30T10:26:37;102637.22;;;5.37;95.77
24422;BME280;12600;53.326;-6.298;2024-01-30T10:29:27;102644.53;;;5.55;95.74
24422;BME280;12600;53.326;-6.298;2024-01-30T10:32:17;102642.72;;;5.67;96.00
24422;BME280;12600;53.326;-6.298;2024-01-30T10:35:07;102645.03;;;5.82;95.70
24422;BME280;12600;53.326;-6.298;2024-01-30T10:37:58;102642.78;;;5.97;95.70
24422;BME280;12600;53.326;-6.298;2024-01-30T10:40:48;102635.16;;;6.06;94.89
24422;BME280;12600;53.326;-6.298;2024-01-30T10:43:41;102646.50;;;6.14;94.44
24422;BME280;12600;53.326;-6.298;2024-01-30T10:46:38;102653.72;;;6.21;94.48
24422;BME280;12600;53.326;-6.298;2024-01-30T10:49:28;102666.50;;;6.32;94.67
24422;BME280;12600;53.326;-6.298;2024-01-30T10:52:19;102657.59;;;6.43;95.13
24422;BME280;12600;53.326;-6.298;2024-01-30T10:55:10;102663.75;;;6.50;94.35
24422;BME280;12600;53.326;-6.298;2024-01-30T10:58:00;102664.34;;;6.64;94.31
24422;BME280;12600;53.326;-6.298;2024-01-30T11:00:51;102662.94;;;6.73;93.70
24422;BME280;12600;53.326;-6.298;2024-01-30T11:03:41;102668.66;;;6.83;93.36
24422;BME280;12600;53.326;-6.298;2024-01-30T11:06:31;102662.63;;;6.93;92.73
24422;BME280;12600;53.326;-6.298;2024-01-30T11:09:20;102677.88;;;7.17;92.71
24422;BME280;12600;53.326;-6.298;2024-01-30T11:12:12;102681.78;;;7.33;92.36
24422;BME280;12600;53.326;-6.298;2024-01-30T11:15:04;102681.91;;;7.38;91.03
24422;BME280;12600;53.326;-6.298;2024-01-30T11:17:54;102687.69;;;7.42;90.63
24422;BME280;12600;53.326;-6.298;2024-01-30T11:20:47;102695.59;;;7.43;89.86
24422;BME280;12600;53.326;-6.298;2024-01-30T11:23:38;102701.84;;;7.44;90.08
24422;BME280;12600;53.326;-6.298;2024-01-30T11:26:28;102697.25;;;7.44;89.15
24422;BME280;12600;53.326;-6.298;2024-01-30T11:29:19;102698.19;;;7.50;89.67
24422;BME280;12600;53.326;-6.298;2024-01-30T11:32:09;102697.00;;;7.57;90.17
24422;BME280;12600;53.326;-6.298;2024-01-30T11:34:59;102689.91;;;7.56;88.71
24422;BME280;12600;53.326;-6.298;2024-01-30T11:37:49;102699.00;;;7.62;89.23
24422;BME280;12600;53.326;-6.298;2024-01-30T11:40:40;102703.34;;;7.75;88.39
24422;BME280;12600;53.326;-6.298;2024-01-30T11:43:29;102699.63;;;7.93;89.09
24422;BME280;12600;53.326;-6.298;2024-01-30T11:46:25;102694.78;;;7.95;87.11
24422;BME280;12600;53.326;-6.298;2024-01-30T11:49:15;102710.59;;;8.09;86.61
24422;BME280;12600;53.326;-6.298;2024-01-30T11:52:05;102699.81;;;8.14;85.60
24422;BME280;12600;53.326;-6.298;2024-01-30T11:54:55;102694.09;;;8.28;87.76
24422;BME280;12600;53.326;-6.298;2024-01-30T11:57:45;102695.78;;;8.46;88.26
24422;BME280;12600;53.326;-6.298;2024-01-30T12:00:34;102694.22;;;8.50;87.73
24422;BME280;12600;53.326;-6.298;2024-01-30T12:03:25;102687.63;;;8.46;86.95
24422;BME280;12600;53.326;-6.298;2024-01-30T12:06:15;102672.59;;;8.43;86.51
24422;BME280;12600;53.326;-6.298;2024-01-30T12:09:05;102667.47;;;8.47;86.63
24422;BME280;12600;53.326;-6.298;2024-01-30T12:11:56;102669.81;;;8.55;88.72
24422;BME280;12600;53.326;-6.298;2024-01-30T12:14:46;102665.19;;;8.72;88.88
24422;BME280;12600;53.326;-6.298;2024-01-30T12:17:35;102656.84;;;8.95;87.61
24422;BME280;12600;53.326;-6.298;2024-01-30T12:20:26;102648.47;;;9.19;85.61
24422;BME280;12600;53.326;-6.298;2024-01-30T12:23:16;102656.25;;;9.49;85.53
24422;BME280;12600;53.326;-6.298;2024-01-30T12:26:08;102641.41;;;9.62;85.10
24422;BME280;12600;53.326;-6.298;2024-01-30T12:28:57;102639.25;;;9.64;85.51
24422;BME280;12600;53.326;-6.298;2024-01-30T12:31:47;102634.94;;;9.68;84.73
24422;BME280;12600;53.326;-6.298;2024-01-30T12:34:41;102627.66;;;10.00;84.08
24422;BME280;12600;53.326;-6.298;2024-01-30T12:37:46;102632.84;;;10.51;82.90
24422;BME280;12600;53.326;-6.298;2024-01-30T12:40:36;102632.16;;;11.08;81.38
24422;BME280;12600;53.326;-6.298;2024-01-30T12:43:29;102634.94;;;11.65;78.17
24422;BME280;12600;53.326;-6.298;2024-01-30T12:46:28;102628.75;;;12.00;78.37
24422;BME280;12600;53.326;-6.298;2024-01-30T12:49:18;102622.22;;;12.27;79.06
24422;BME280;12600;53.326;-6.298;2024-01-30T12:52:07;102644.22;;;12.68;76.00
24422;BME280;12600;53.326;-6.298;2024-01-30T12:54:58;102639.53;;;12.63;65.04
24422;BME280;12600;53.326;-6.298;2024-01-30T12:57:48;102629.09;;;13.01;70.02
24422;BME280;12600;53.326;-6.298;2024-01-30T13:00:37;102625.72;;;13.34;64.13
24422;BME280;12600;53.326;-6.298;2024-01-30T13:03:27;102632.91;;;13.90;63.08
24422;BME280;12600;53.326;-6.298;2024-01-30T13:06:16;102629.94;;;14.25;59.41
24422;BME280;12600;53.326;-6.298;2024-01-30T13:09:07;102641.09;;;14.44;56.53
24422;BME280;12600;53.326;-6.298;2024-01-30T13:11:58;102651.44;;;14.58;54.19
24422;BME280;12600;53.326;-6.298;2024-01-30T13:14:48;102660.09;;;14.75;56.56
24422;BME280;12600;53.326;-6.298;2024-01-30T13:17:37;102665.91;;;14.73;52.71
24422;BME280;12600;53.326;-6.298;2024-01-30T13:20:27;102659.84;;;14.76;51.98
24422;BME280;12600;53.326;-6.298;2024-01-30T13:23:17;102646.47;;;14.94;51.83
24422;BME280;12600;53.326;-6.298;2024-01-30T13:26:06;102650.38;;;15.17;51.68
24422;BME280;12600;53.326;-6.298;2024-01-30T13:28:57;102665.44;;;15.48;50.31
24422;BME280;12600;53.326;-6.298;2024-01-30T13:31:48;102653.72;;;15.37;49.43
24422;BME280;12600;53.326;-6.298;2024-01-30T13:34:38;102649.38;;;15.31;49.17
24422;BME280;12600;53.326;-6.298;2024-01-30T13:37:28;102644.31;;;15.68;49.03
24422;BME280;12600;53.326;-6.298;2024-01-30T13:40:18;102643.22;;;16.06;48.19
24422;BME280;12600;53.326;-6.298;2024-01-30T13:43:08;102652.47;;;16.15;46.43
24422;BME280;12600;53.326;-6.298;2024-01-30T13:45:59;102662.38;;;16.16;45.39
24422;BME280;12600;53.326;-6.298;2024-01-30T13:48:49;102658.88;;;15.92;44.12
24422;BME280;12600;53.326;-6.298;2024-01-30T13:51:39;102648.66;;;15.92;46.04
24422;BME280;12600;53.326;-6.298;2024-01-30T13:54:28;102648.19;;;15.66;46.04
24422;BME280;12600;53.326;-6.298;2024-01-30T13:57:18;102640.06;;;15.27;45.45
24422;BME280;12600;53.326;-6.298;2024-01-30T14:00:09;102638.09;;;14.75;45.42
24422;BME280;12600;53.326;-6.298;2024-01-30T14:03:03;102650.66;;;14.08;46.46
24422;BME280;12600;53.326;-6.298;2024-01-30T14:05:54;102635.91;;;13.34;46.64
24422;BME280;12600;53.326;-6.298;2024-01-30T14:08:44;102647.72;;;13.04;47.87
24422;BME280;12600;53.326;-6.298;2024-01-30T14:11:44;102638.59;;;13.39;47.73
24422;BME280;12600;53.326;-6.298;2024-01-30T14:14:33;102642.41;;;14.08;46.74
24422;BME280;12600;53.326;-6.298;2024-01-30T14:17:23;102640.31;;;14.73;46.24
24422;BME280;12600;53.326;-6.298;2024-01-30T14:20:14;102633.09;;;15.11;44.11
24422;BME280;12600;53.326;-6.298;2024-01-30T14:23:04;102636.91;;;15.63;43.61
24422;BME280;12600;53.326;-6.298;2024-01-30T14:25:54;102643.13;;;15.92;42.42
24422;BME280;12600;53.326;-6.298;2024-01-30T14:28:44;102646.56;;;16.03;41.88
24422;BME280;12600;53.326;-6.298;2024-01-30T14:31:34;102653.31;;;15.49;41.11
24422;BME280;12600;53.326;-6.298;2024-01-30T14:34:24;102648.91;;;14.66;42.64
24422;BME280;12600;53.326;-6.298;2024-01-30T14:37:16;102610.56;;;13.52;44.42
24422;BME280;12600;53.326;-6.298;2024-01-30T14:40:07;102631.28;;;12.94;46.44
24422;BME280;12600;53.326;-6.298;2024-01-30T14:42:56;102649.38;;;12.49;47.24
24422;BME280;12600;53.326;-6.298;2024-01-30T14:45:49;102656.00;;;12.78;47.18
24422;BME280;12600;53.326;-6.298;2024-01-30T14:48:40;102640.28;;;13.35;46.40
24422;BME280;12600;53.326;-6.298;2024-01-30T14:51:30;102632.63;;;13.91;44.95
24422;BME280;12600;53.326;-6.298;2024-01-30T14:54:21;102645.91;;;14.63;44.85
24422;BME280;12600;53.326;-6.298;2024-01-30T14:57:11;102621.44;;;14.90;43.12
24422;BME280;12600;53.326;-6.298;2024-01-30T15:00:03;102624.38;;;14.99;39.86
24422;BME280;12600;53.326;-6.298;2024-01-30T15:02:54;102634.72;;;15.36;40.97
24422;BME280;12600;53.326;-6.298;2024-01-30T15:05:43;102649.09;;;15.33;39.79
24422;BME280;12600;53.326;-6.298;2024-01-30T15:08:33;102641.75;;;15.23;40.17
24422;BME280;12600;53.326;-6.298;2024-01-30T15:11:24;102655.25;;;15.25;40.64
24422;BME280;12600;53.326;-6.298;2024-01-30T15:14:14;102639.44;;;15.06;40.84
24422;BME280;12600;53.326;-6.298;2024-01-30T15:17:04;102631.50;;;14.76;41.32
24422;BME280;12600;53.326;-6.298;2024-01-30T15:19:54;102647.97;;;14.42;41.88
24422;BME280;12600;53.326;-6.298;2024-01-30T15:22:43;102644.28;;;13.63;43.04
24422;BME280;12600;53.326;-6.298;2024-01-30T15:25:33;102643.63;;;13.01;44.03
24422;BME280;12600;53.326;-6.298;2024-01-30T15:28:34;102640.06;;;12.55;45.41
24422;BME280;12600;53.326;-6.298;2024-01-30T15:31:24;102649.94;;;12.36;46.83
24422;BME280;12600;53.326;-6.298;2024-01-30T15:34:14;102649.34;;;12.13;47.37
24422;BME280;12600;53.326;-6.298;2024-01-30T15:37:03;102624.53;;;11.67;48.29
24422;BME280;12600;53.326;-6.298;2024-01-30T15:39:53;102652.13;;;11.56;49.46
24422;BME280;12600;53.326;-6.298;2024-01-30T15:42:42;102658.25;;;11.26;50.17
24422;BME280;12600;53.326;-6.298;2024-01-30T15:45:33;102666.31;;;11.00;51.35
24422;BME280;12600;53.326;-6.298;2024-01-30T15:48:23;102675.44;;;10.79;52.00
24422;BME280;12600;53.326;-6.298;2024-01-30T15:51:12;102682.63;;;10.58;53.43
24422;BME280;12600;53.326;-6.298;2024-01-30T15:54:02;102680.28;;;10.40;54.25
24422;BME280;12600;53.326;-6.298;2024-01-30T15:56:52;102678.47;;;10.23;55.16
24422;BME280;12600;53.326;-6.298;2024-01-30T15:59:42;102691.66;;;10.09;56.31
24422;BME280;12600;53.326;-6.298;2024-01-30T16:02:33;102691.63;;;10.04;56.86
24422;BME280;12600;53.326;-6.298;2024-01-30T16:05:23;102687.88;;;9.89;58.40
24422;BME280;12600;53.326;-6.298;2024-01-30T16:08:12;102672.69;;;9.76;58.60
24422;BME280;12600;53.326;-6.298;2024-01-30T16:11:02;102679.25;;;9.75;59.24
24422;BME280;12600;53.326;-6.298;2024-01-30T16:13:52;102674.88;;;9.74;59.57
24422;BME280;12600;53.326;-6.298;2024-01-30T16:16:41;102673.31;;;9.61;60.20
24422;BME280;12600;53.326;-6.298;2024-01-30T16:19:32;102679.72;;;9.50;60.82
24422;BME280;12600;53.326;-6.298;2024-01-30T16:22:22;102682.16;;;9.46;61.27
24422;BME280;12600;53.326;-6.298;2024-01-30T16:25:11;102680.69;;;9.39;61.72
24422;BME280;12600;53.326;-6.298;2024-01-30T16:28:05;102660.53;;;9.23;62.45
24422;BME280;12600;53.326;-6.298;2024-01-30T16:30:55;102659.94;;;9.21;62.30
24422;BME280;12600;53.326;-6.298;2024-01-30T16:33:46;102665.81;;;9.13;63.27
24422;BME280;12600;53.326;-6.298;2024-01-30T16:36:38;102676.06;;;9.06;62.86
24422;BME280;12600;53.326;-6.298;2024-01-30T16:39:27;102679.72;;;8.94;63.66
24422;BME280;12600;53.326;-6.298;2024-01-30T16:42:17;102676.50;;;8.81;63.66
24422;BME280;12600;53.326;-6.298;2024-01-30T16:45:08;102696.19;;;8.83;63.90
24422;BME280;12600;53.326;-6.298;2024-01-30T16:47:57;102704.84;;;8.80;63.88
24422;BME280;12600;53.326;-6.298;2024-01-30T16:50:47;102701.19;;;8.74;64.66
24422;BME280;12600;53.326;-6.298;2024-01-30T16:53:39;102701.03;;;8.64;64.64
24422;BME280;12600;53.326;-6.298;2024-01-30T16:56:28;102711.25;;;8.57;65.28
24422;BME280;12600;53.326;-6.298;2024-01-30T16:59:18;102724.44;;;8.48;65.91
24422;BME280;12600;53.326;-6.298;2024-01-30T17:02:07;102714.03;;;8.33;66.39
24422;BME280;12600;53.326;-6.298;2024-01-30T17:04:57;102716.59;;;8.35;67.04
24422;BME280;12600;53.326;-6.298;2024-01-30T17:08:03;102729.34;;;8.34;67.54
24422;BME280;12600;53.326;-6.298;2024-01-30T17:10:54;102715.19;;;8.21;67.35